Time;durP1;ratioP1;P1;durP2;ratioP2;P2;SDS_P1;SDS_P2;PMS_P1;PMS_P2;Temp;Humidity;BMP_temperature;BMP_pressure;BME280_temperature;BME280_humidity;BME280_pressure;Samples;Min_cycle;Max_cycle;Signal;HPM_P1;HPM_P2
2021/11/20 00:02:06;;;;;;;79.68;45.95;;;;;;;;;;5022314;28;20053;-74
2021/11/20 00:04:32;;;;;;;81.65;46.47;;;;;;;;;;5008210;28;20086;-74
2021/11/20 00:07:03;;;;;;;87.38;49.17;;;;;;;;;;5018743;28;20124;-74
2021/11/20 00:09:29;;;;;;;90.43;46.97;;;;;;;;;;5008254;28;20379;-74
2021/11/20 00:11:57;;;;;;;75.65;46.47;;;;;;;;;;5035988;28;20459;-74
2021/11/20 00:14:24;;;;;;;82.03;47.65;;;;;;;;;;5023922;28;20563;-74
2021/11/20 00:16:51;;;;;;;62.80;36.22;;;;;;;;;;5008587;28;20471;-74
2021/11/20 00:19:18;;;;;;;57.92;33.20;;;;;;;;;;5010224;28;20045;-74
2021/11/20 00:21:55;;;;;;;57.85;35.28;;;;;;;;;;5009405;28;20108;-74
2021/11/20 00:24:29;;;;;;;56.83;33.42;;;;;;;;;;5027796;28;20038;-74
2021/11/20 00:26:56;;;;;;;52.08;31.55;;;;;;;;;;5018181;28;20057;-74
2021/11/20 00:29:27;;;;;;;54.03;32.42;;;;;;;;;;5007643;28;20088;-74
2021/11/20 00:31:58;;;;;;;53.38;32.22;;;;;;;;;;5007588;28;20022;-74
2021/11/20 00:34:26;;;;;;;59.83;35.75;;;;;;;;;;5012573;28;20048;-74
2021/11/20 00:36:53;;;;;;;57.67;32.97;;;;;;;;;;5019472;28;20040;-73
2021/11/20 00:39:20;;;;;;;53.80;30.33;;;;;;;;;;5011578;28;20053;-74
2021/11/20 00:41:47;;;;;;;49.92;30.08;;;;;;;;;;5027136;28;20364;-74
2021/11/20 00:44:13;;;;;;;57.92;31.20;;;;;;;;;;5011564;28;20041;-74
2021/11/20 00:46:39;;;;;;;53.90;30.98;;;;;;;;;;5017939;28;20029;-73
2021/11/20 00:49:06;;;;;;;63.55;34.67;;;;;;;;;;5008206;28;20038;-73
2021/11/20 00:51:32;;;;;;;88.13;44.92;;;;;;;;;;5007667;28;20410;-73
2021/11/20 00:53:59;;;;;;;117.25;55.13;;;;;;;;;;5007997;28;20049;-73
2021/11/20 00:56:26;;;;;;;139.43;65.38;;;;;;;;;;5007866;28;20049;-73
2021/11/20 00:58:53;;;;;;;132.95;62.45;;;;;;;;;;5011569;28;20046;-74
2021/11/20 01:01:21;;;;;;;152.13;74.10;;;;;;;;;;5006889;28;20049;-73
2021/11/20 01:03:47;;;;;;;112.30;57.33;;;;;;;;;;5014238;28;20747;-74
2021/11/20 01:06:13;;;;;;;95.43;50.13;;;;;;;;;;5038654;28;20037;-74
2021/11/20 01:08:41;;;;;;;78.47;43.70;;;;;;;;;;5012258;28;20033;-74
2021/11/20 01:11:09;;;;;;;77.38;42.13;;;;;;;;;;5025874;28;20112;-73
2021/11/20 01:13:36;;;;;;;71.57;38.70;;;;;;;;;;5024690;28;20862;-73
2021/11/20 01:16:03;;;;;;;79.00;41.70;;;;;;;;;;5019579;28;20037;-73
2021/11/20 01:18:30;;;;;;;79.75;42.05;;;;;;;;;;5021953;28;20038;-73
2021/11/20 01:20:56;;;;;;;75.43;42.58;;;;;;;;;;5006743;28;20112;-73
2021/11/20 01:23:24;;;;;;;68.15;37.67;;;;;;;;;;5013269;28;20109;-74
2021/11/20 01:25:50;;;;;;;58.45;32.20;;;;;;;;;;5013727;28;20026;-74
2021/11/20 01:28:17;;;;;;;52.05;29.73;;;;;;;;;;5026776;28;20510;-73
2021/11/20 01:30:43;;;;;;;51.15;25.20;;;;;;;;;;5024079;28;20027;-73
2021/11/20 01:33:09;;;;;;;52.50;29.42;;;;;;;;;;5011833;28;20153;-74
2021/11/20 01:35:36;;;;;;;46.35;25.95;;;;;;;;;;5031599;28;20034;-74
2021/11/20 01:38:02;;;;;;;52.20;30.05;;;;;;;;;;5020705;28;20120;-73
2021/11/20 01:40:29;;;;;;;273.67;45.22;;;;;;;;;;5010450;28;20129;-74
2021/11/20 01:42:55;;;;;;;238.75;56.85;;;;;;;;;;5024315;28;20026;-74
2021/11/20 01:45:28;;;;;;;72.68;31.60;;;;;;;;;;5010662;28;20422;-73
2021/11/20 01:47:54;;;;;;;184.93;48.75;;;;;;;;;;5019670;28;20038;-73
2021/11/20 01:50:31;;;;;;;73.88;30.92;;;;;;;;;;5018325;28;20053;-74
2021/11/20 01:52:57;;;;;;;47.38;27.15;;;;;;;;;;5017448;28;20022;-74
2021/11/20 01:55:44;;;;;;;53.90;28.15;;;;;;;;;;5017268;28;20021;-74
2021/11/20 01:58:15;;;;;;;170.18;46.50;;;;;;;;;;5013432;28;20045;-74
2021/11/20 02:00:44;;;;;;;72.38;29.75;;;;;;;;;;5027274;28;20037;-74
2021/11/20 02:03:16;;;;;;;121.53;34.00;;;;;;;;;;5031234;28;20124;-74
2021/11/20 02:06:17;;;;;;;76.20;29.92;;;;;;;;;;5028735;28;20030;-74
2021/11/20 02:08:49;;;;;;;79.85;28.23;;;;;;;;;;4987964;28;20038;-74
2021/11/20 02:11:24;;;;;;;143.80;39.33;;;;;;;;;;5009083;28;20066;-74
2021/11/20 02:13:50;;;;;;;73.13;32.78;;;;;;;;;;5010503;28;20108;-74
2021/11/20 02:16:19;;;;;;;48.75;26.80;;;;;;;;;;5018054;28;20068;-74
2021/11/20 02:18:47;;;;;;;104.20;40.25;;;;;;;;;;5018238;28;20806;-73
2021/11/20 02:21:13;;;;;;;70.32;35.25;;;;;;;;;;5009094;28;20464;-74
2021/11/20 02:23:39;;;;;;;64.22;32.25;;;;;;;;;;5010939;28;20060;-74
2021/11/20 02:26:05;;;;;;;50.03;28.08;;;;;;;;;;5009884;28;20648;-74
2021/11/20 02:28:32;;;;;;;50.38;27.90;;;;;;;;;;5015011;28;20080;-74
2021/11/20 02:30:59;;;;;;;76.22;35.22;;;;;;;;;;5013824;28;20537;-73
2021/11/20 02:33:30;;;;;;;44.40;24.50;;;;;;;;;;5015554;28;20030;-74
2021/11/20 02:36:04;;;;;;;51.97;29.63;;;;;;;;;;5009612;28;20113;-74
2021/11/20 02:38:32;;;;;;;53.60;26.98;;;;;;;;;;5014360;28;20133;-74
2021/11/20 02:41:00;;;;;;;74.82;33.85;;;;;;;;;;5009493;28;20691;-73
2021/11/20 02:43:27;;;;;;;79.43;34.63;;;;;;;;;;5022726;28;20041;-74
2021/11/20 02:45:55;;;;;;;61.10;29.30;;;;;;;;;;5029325;28;20822;-74
2021/11/20 02:48:21;;;;;;;74.93;35.00;;;;;;;;;;5026924;28;20025;-74
2021/11/20 02:50:50;;;;;;;62.83;31.38;;;;;;;;;;5029281;28;20117;-74
2021/11/20 02:53:21;;;;;;;53.40;27.75;;;;;;;;;;5019245;28;20030;-74
2021/11/20 02:55:49;;;;;;;62.15;31.13;;;;;;;;;;5008996;28;20038;-74
2021/11/20 02:58:16;;;;;;;62.90;30.85;;;;;;;;;;5026044;28;20048;-74
2021/11/20 03:00:43;;;;;;;75.07;32.67;;;;;;;;;;5029454;28;20132;-74
2021/11/20 03:03:09;;;;;;;77.25;33.33;;;;;;;;;;5010757;28;20029;-74
2021/11/20 03:05:35;;;;;;;59.40;31.20;;;;;;;;;;5014158;28;21008;-74
2021/11/20 03:08:01;;;;;;;172.40;43.30;;;;;;;;;;5017364;28;20037;-74
2021/11/20 03:10:27;;;;;;;113.82;35.28;;;;;;;;;;5008961;28;20090;-74
2021/11/20 03:12:53;;;;;;;126.18;38.42;;;;;;;;;;5009716;28;20018;-74
2021/11/20 03:15:19;;;;;;;195.38;45.08;;;;;;;;;;5027626;28;20031;-74
2021/11/20 03:17:45;;;;;;;60.60;32.45;;;;;;;;;;5013093;28;20103;-74
2021/11/20 03:20:12;;;;;;;51.17;29.05;;;;;;;;;;5020124;28;20068;-73
2021/11/20 03:22:48;;;;;;;249.27;48.05;;;;;;;;;;5017301;28;20626;-74
2021/11/20 03:25:14;;;;;;;79.35;35.38;;;;;;;;;;5024727;28;20511;-74
2021/11/20 03:27:40;;;;;;;166.23;39.65;;;;;;;;;;5010803;28;20533;-74
2021/11/20 03:30:07;;;;;;;46.30;24.67;;;;;;;;;;5015136;28;20037;-74
2021/11/20 03:32:33;;;;;;;125.88;30.83;;;;;;;;;;5008743;28;20114;-73
2021/11/20 03:34:59;;;;;;;116.70;27.80;;;;;;;;;;5020144;28;20038;-74
2021/11/20 03:37:25;;;;;;;114.70;28.58;;;;;;;;;;5008491;28;20473;-74
2021/11/20 03:39:52;;;;;;;151.43;31.40;;;;;;;;;;5016565;28;20124;-74
2021/11/20 03:42:19;;;;;;;117.68;27.33;;;;;;;;;;5048377;28;20057;-74
2021/11/20 03:44:45;;;;;;;109.93;25.98;;;;;;;;;;5045031;28;20373;-74
2021/11/20 03:47:11;;;;;;;32.85;19.73;;;;;;;;;;5010743;28;20505;-74
2021/11/20 03:49:37;;;;;;;67.93;24.88;;;;;;;;;;5013705;28;20041;-74
2021/11/20 03:52:03;;;;;;;106.65;27.83;;;;;;;;;;5016597;28;20506;-74
2021/11/20 03:54:29;;;;;;;97.60;29.20;;;;;;;;;;5014139;28;20088;-74
2021/11/20 03:56:56;;;;;;;220.98;41.22;;;;;;;;;;5008526;28;20030;-74
2021/11/20 03:59:22;;;;;;;56.33;27.60;;;;;;;;;;5008758;28;20088;-73
2021/11/20 04:01:49;;;;;;;67.93;29.75;;;;;;;;;;5024293;28;20370;-74
2021/11/20 04:04:15;;;;;;;31.80;18.65;;;;;;;;;;5009284;28;21061;-73
2021/11/20 04:06:41;;;;;;;60.63;26.77;;;;;;;;;;5016455;28;20072;-73
2021/11/20 04:09:12;;;;;;;69.65;27.48;;;;;;;;;;5014764;28;20080;-74
2021/11/20 04:11:39;;;;;;;49.70;23.10;;;;;;;;;;5028483;28;20500;-74
2021/11/20 04:14:05;;;;;;;80.97;25.42;;;;;;;;;;5015603;28;20041;-74
2021/11/20 04:16:32;;;;;;;36.75;22.40;;;;;;;;;;5021570;28;20092;-74
2021/11/20 04:18:59;;;;;;;46.35;20.95;;;;;;;;;;5009902;28;20092;-74
2021/11/20 04:21:25;;;;;;;39.50;20.52;;;;;;;;;;5012718;28;20061;-74
2021/11/20 04:23:52;;;;;;;38.53;19.75;;;;;;;;;;5012136;28;20113;-74
2021/11/20 04:26:20;;;;;;;36.22;22.75;;;;;;;;;;5015819;28;20033;-74
2021/11/20 04:28:47;;;;;;;55.75;21.75;;;;;;;;;;5007930;28;20038;-74
2021/11/20 04:31:13;;;;;;;123.55;35.30;;;;;;;;;;5015994;28;20029;-74
2021/11/20 04:33:40;;;;;;;53.35;24.50;;;;;;;;;;5017754;28;20033;-74
2021/11/20 04:36:07;;;;;;;84.80;30.75;;;;;;;;;;5010081;28;20092;-74
2021/11/20 04:38:33;;;;;;;165.80;38.15;;;;;;;;;;5019031;28;20176;-74
2021/11/20 04:41:00;;;;;;;59.78;27.20;;;;;;;;;;5010327;28;20061;-74
2021/11/20 04:43:26;;;;;;;42.72;23.10;;;;;;;;;;5009675;28;20049;-74
2021/11/20 04:45:53;;;;;;;32.30;20.80;;;;;;;;;;5018227;28;20066;-74
2021/11/20 04:48:20;;;;;;;54.92;23.25;;;;;;;;;;5015765;28;20589;-74
2021/11/20 04:50:46;;;;;;;29.92;17.55;;;;;;;;;;5015538;28;20105;-74
2021/11/20 04:53:12;;;;;;;28.77;17.83;;;;;;;;;;5007916;28;20034;-74
2021/11/20 04:55:38;;;;;;;49.15;22.70;;;;;;;;;;5006790;28;20376;-74
2021/11/20 04:58:04;;;;;;;73.97;25.73;;;;;;;;;;5009471;28;20033;-74
2021/11/20 05:00:33;;;;;;;41.47;22.33;;;;;;;;;;5037094;28;20025;-74
2021/11/20 05:02:59;;;;;;;209.75;41.65;;;;;;;;;;5022463;28;20072;-74
2021/11/20 05:05:25;;;;;;;171.13;38.38;;;;;;;;;;5009048;28;20030;-74
2021/11/20 05:07:52;;;;;;;101.13;28.83;;;;;;;;;;5011689;28;20067;-74
2021/11/20 05:10:18;;;;;;;49.35;27.85;;;;;;;;;;5011537;28;20034;-74
2021/11/20 05:12:44;;;;;;;53.15;33.53;;;;;;;;;;5021764;28;20049;-74
2021/11/20 05:15:11;;;;;;;73.35;31.02;;;;;;;;;;5032138;28;20029;-74
2021/11/20 05:17:37;;;;;;;44.90;22.83;;;;;;;;;;5017353;28;20053;-74
2021/11/20 05:20:04;;;;;;;52.13;24.63;;;;;;;;;;5028553;28;20108;-74
2021/11/20 05:22:30;;;;;;;31.83;18.20;;;;;;;;;;5014293;28;20498;-74
2021/11/20 05:24:56;;;;;;;28.58;17.70;;;;;;;;;;5021458;28;20037;-74
2021/11/20 05:27:22;;;;;;;23.00;14.65;;;;;;;;;;5015359;28;20029;-74
2021/11/20 05:30:07;;;;;;;22.90;14.05;;;;;;;;;;5027959;28;20113;-74
2021/11/20 05:32:33;;;;;;;22.60;13.98;;;;;;;;;;5025384;28;20048;-74
2021/11/20 05:34:59;;;;;;;20.08;13.00;;;;;;;;;;5025632;28;20125;-74
2021/11/20 05:37:25;;;;;;;32.03;16.55;;;;;;;;;;5011091;28;20037;-74
2021/11/20 05:39:51;;;;;;;23.10;14.43;;;;;;;;;;5011234;28;20507;-73
2021/11/20 05:42:17;;;;;;;64.13;19.52;;;;;;;;;;5011205;28;20112;-73
2021/11/20 05:44:44;;;;;;;21.13;14.18;;;;;;;;;;5030290;28;20042;-74
2021/11/20 05:47:10;;;;;;;27.95;14.95;;;;;;;;;;5013931;28;20061;-74
2021/11/20 05:49:38;;;;;;;26.85;15.98;;;;;;;;;;5014836;28;20042;-74
2021/11/20 05:52:04;;;;;;;46.03;18.50;;;;;;;;;;5010842;28;20117;-73
2021/11/20 05:54:30;;;;;;;63.72;21.90;;;;;;;;;;5027691;28;20033;-74
2021/11/20 05:56:57;;;;;;;56.45;21.88;;;;;;;;;;5032186;28;20025;-74
2021/11/20 05:59:23;;;;;;;26.15;15.77;;;;;;;;;;5029236;28;20052;-74
2021/11/20 06:01:50;;;;;;;61.90;23.27;;;;;;;;;;5022783;28;20042;-74
2021/11/20 06:04:16;;;;;;;54.10;21.08;;;;;;;;;;5022051;28;20037;-74
2021/11/20 06:06:42;;;;;;;36.67;22.10;;;;;;;;;;5028742;28;20025;-73
2021/11/20 06:09:09;;;;;;;30.63;18.20;;;;;;;;;;5026257;28;20422;-74
2021/11/20 06:11:35;;;;;;;28.85;18.08;;;;;;;;;;5017507;28;20557;-73
2021/11/20 06:14:01;;;;;;;32.63;19.05;;;;;;;;;;5020791;28;20041;-74
2021/11/20 06:16:28;;;;;;;37.28;19.23;;;;;;;;;;5022783;28;20034;-74
2021/11/20 06:18:54;;;;;;;36.17;19.13;;;;;;;;;;5025836;28;20041;-74
2021/11/20 06:21:20;;;;;;;41.63;20.15;;;;;;;;;;5024253;28;20037;-74
2021/11/20 06:23:46;;;;;;;38.38;18.05;;;;;;;;;;5034155;28;20071;-73
2021/11/20 06:26:12;;;;;;;26.60;15.80;;;;;;;;;;5026692;28;20037;-74
2021/11/20 06:28:39;;;;;;;39.40;18.88;;;;;;;;;;5027905;28;20084;-74
2021/11/20 06:31:06;;;;;;;28.58;16.02;;;;;;;;;;5031221;28;20037;-74
2021/11/20 06:33:32;;;;;;;30.05;17.15;;;;;;;;;;5018698;28;20034;-74
2021/11/20 06:35:59;;;;;;;44.05;24.08;;;;;;;;;;5017165;28;20503;-74
2021/11/20 06:38:26;;;;;;;40.85;20.73;;;;;;;;;;5016618;28;20068;-74
2021/11/20 06:40:53;;;;;;;33.78;19.77;;;;;;;;;;5021696;28;20040;-74
2021/11/20 06:43:22;;;;;;;35.60;20.90;;;;;;;;;;5012829;28;20129;-74
2021/11/20 06:45:49;;;;;;;42.33;19.40;;;;;;;;;;5030672;28;20478;-74
2021/11/20 06:48:16;;;;;;;66.65;27.35;;;;;;;;;;5035030;28;20337;-74
2021/11/20 06:50:43;;;;;;;77.50;28.45;;;;;;;;;;5019037;28;20041;-74
2021/11/20 06:53:10;;;;;;;31.55;19.52;;;;;;;;;;5023576;28;20033;-74
2021/11/20 06:55:36;;;;;;;37.30;20.92;;;;;;;;;;5024523;28;20033;-74
2021/11/20 06:58:20;;;;;;;41.72;22.20;;;;;;;;;;5022522;28;20030;-74
2021/11/20 07:00:51;;;;;;;45.05;22.08;;;;;;;;;;5017499;28;20026;-74
2021/11/20 07:03:23;;;;;;;48.90;24.48;;;;;;;;;;5015964;28;20523;-74
2021/11/20 07:05:54;;;;;;;121.93;31.17;;;;;;;;;;5025545;28;20031;-74
2021/11/20 07:08:20;;;;;;;35.08;18.08;;;;;;;;;;5016064;28;20092;-74
2021/11/20 07:10:47;;;;;;;35.08;18.67;;;;;;;;;;5018191;28;20029;-74
2021/11/20 07:13:14;;;;;;;69.72;26.10;;;;;;;;;;5013724;28;20034;-74
2021/11/20 07:15:40;;;;;;;30.27;18.88;;;;;;;;;;5019376;28;20072;-73
2021/11/20 07:18:06;;;;;;;30.30;17.60;;;;;;;;;;5019839;28;20040;-74
2021/11/20 07:20:34;;;;;;;28.75;18.30;;;;;;;;;;5029576;28;20028;-74
2021/11/20 07:23:00;;;;;;;38.92;19.08;;;;;;;;;;5022778;28;20034;-74
2021/11/20 07:25:27;;;;;;;28.70;17.33;;;;;;;;;;5026516;28;20529;-74
2021/11/20 07:27:54;;;;;;;32.28;17.67;;;;;;;;;;5016118;28;20018;-74
2021/11/20 07:30:20;;;;;;;36.90;21.33;;;;;;;;;;5018835;28;20104;-74
2021/11/20 07:32:46;;;;;;;33.78;19.98;;;;;;;;;;5013590;28;20025;-74
2021/11/20 07:35:13;;;;;;;52.10;25.05;;;;;;;;;;5020195;28;20459;-74
2021/11/20 07:37:39;;;;;;;57.88;24.83;;;;;;;;;;5015694;28;20029;-74
2021/11/20 07:40:06;;;;;;;66.30;26.65;;;;;;;;;;5015584;28;20073;-74
2021/11/20 07:42:32;;;;;;;31.67;19.83;;;;;;;;;;5024553;28;20056;-74
2021/11/20 07:45:02;;;;;;;33.22;20.67;;;;;;;;;;5020895;28;20041;-73
2021/11/20 07:47:29;;;;;;;53.80;27.60;;;;;;;;;;5022303;28;20032;-74
2021/11/20 07:49:56;;;;;;;44.28;26.50;;;;;;;;;;5016178;28;20038;-74
2021/11/20 07:52:22;;;;;;;35.05;21.20;;;;;;;;;;5017085;28;20385;-74
2021/11/20 07:54:47;;;;;;;35.65;21.75;;;;;;;;;;5026015;28;20036;-73
2021/11/20 07:57:14;;;;;;;34.38;21.65;;;;;;;;;;5014063;28;20033;-74
2021/11/20 07:59:40;;;;;;;34.03;21.98;;;;;;;;;;5024656;28;20041;-74
2021/11/20 08:02:08;;;;;;;40.30;25.25;;;;;;;;;;5017120;28;20038;-73
2021/11/20 08:04:38;;;;;;;37.47;24.58;;;;;;;;;;5022979;28;20029;-74
2021/11/20 08:07:06;;;;;;;42.30;27.33;;;;;;;;;;5026570;28;20073;-73
2021/11/20 08:09:33;;;;;;;40.72;26.98;;;;;;;;;;5013592;28;20113;-74
2021/11/20 08:11:59;;;;;;;34.85;22.48;;;;;;;;;;5011766;28;20080;-74
2021/11/20 08:14:25;;;;;;;42.22;26.42;;;;;;;;;;5015250;28;20836;-74
2021/11/20 08:16:51;;;;;;;31.80;20.13;;;;;;;;;;5013353;28;20463;-74
2021/11/20 08:19:17;;;;;;;29.95;19.17;;;;;;;;;;5018186;28;20036;-73
2021/11/20 08:21:43;;;;;;;30.55;18.20;;;;;;;;;;5018625;28;20033;-74
2021/11/20 08:24:09;;;;;;;33.15;18.20;;;;;;;;;;5026888;28;20116;-75
2021/11/20 08:26:36;;;;;;;36.30;20.23;;;;;;;;;;5024150;28;20044;-74
2021/11/20 08:29:04;;;;;;;35.53;20.30;;;;;;;;;;5011222;28;20038;-74
2021/11/20 08:31:31;;;;;;;29.30;19.00;;;;;;;;;;5019264;28;20482;-74
2021/11/20 08:33:57;;;;;;;26.92;18.83;;;;;;;;;;5015120;28;20030;-73
2021/11/20 08:36:23;;;;;;;43.88;22.65;;;;;;;;;;5012872;28;20029;-73
2021/11/20 08:38:49;;;;;;;42.33;25.15;;;;;;;;;;5014261;28;20514;-73
2021/11/20 08:41:15;;;;;;;31.17;19.40;;;;;;;;;;5018895;28;20071;-74
2021/11/20 08:43:41;;;;;;;57.28;25.77;;;;;;;;;;5029581;28;20830;-73
2021/11/20 08:46:08;;;;;;;35.70;23.88;;;;;;;;;;5019972;28;20125;-73
2021/11/20 08:48:35;;;;;;;39.28;25.40;;;;;;;;;;5030461;28;20021;-73
2021/11/20 08:51:03;;;;;;;34.03;23.13;;;;;;;;;;5022590;28;20034;-73
2021/11/20 08:53:29;;;;;;;67.97;27.48;;;;;;;;;;5023622;28;20022;-73
2021/11/20 08:55:56;;;;;;;41.45;22.83;;;;;;;;;;5019225;28;20491;-73
2021/11/20 08:58:22;;;;;;;40.38;22.30;;;;;;;;;;5017241;28;20042;-73
2021/11/20 09:00:50;;;;;;;38.05;23.02;;;;;;;;;;5020111;28;20087;-74
2021/11/20 09:03:21;;;;;;;34.08;20.25;;;;;;;;;;5020029;28;20034;-73
2021/11/20 09:05:53;;;;;;;52.38;25.80;;;;;;;;;;5022823;28;20041;-73
2021/11/20 09:08:25;;;;;;;36.78;21.88;;;;;;;;;;5033590;28;20386;-73
2021/11/20 09:10:57;;;;;;;32.70;22.65;;;;;;;;;;5027188;28;20029;-73
2021/11/20 09:13:23;;;;;;;50.55;26.77;;;;;;;;;;5037301;28;20041;-73
2021/11/20 09:15:57;;;;;;;36.67;24.50;;;;;;;;;;5022788;28;20029;-73
2021/11/20 09:18:23;;;;;;;34.92;20.58;;;;;;;;;;5022554;28;20391;-73
2021/11/20 09:20:52;;;;;;;33.67;19.88;;;;;;;;;;5024762;28;20025;-73
2021/11/20 09:23:18;;;;;;;27.65;18.75;;;;;;;;;;5024317;28;20069;-73
2021/11/20 09:25:44;;;;;;;29.60;18.85;;;;;;;;;;5023458;28;20037;-73
2021/11/20 09:28:11;;;;;;;28.45;18.63;;;;;;;;;;5023147;28;20029;-73
2021/11/20 09:30:39;;;;;;;29.80;20.15;;;;;;;;;;5033983;28;20021;-73
2021/11/20 09:33:05;;;;;;;32.30;20.30;;;;;;;;;;5023489;28;20033;-73
2021/11/20 09:35:32;;;;;;;43.78;25.10;;;;;;;;;;5017953;28;20053;-74
2021/11/20 09:37:58;;;;;;;35.08;22.30;;;;;;;;;;5032821;28;20060;-73
2021/11/20 09:40:25;;;;;;;33.10;23.17;;;;;;;;;;5024688;28;20037;-73
2021/11/20 09:42:53;;;;;;;38.80;22.27;;;;;;;;;;5028528;28;20020;-73
2021/11/20 09:45:21;;;;;;;36.83;23.48;;;;;;;;;;5021996;28;20034;-73
2021/11/20 09:47:52;;;;;;;33.28;22.30;;;;;;;;;;5021321;28;20816;-73
2021/11/20 09:50:18;;;;;;;32.67;21.50;;;;;;;;;;5019208;28;20021;-73
2021/11/20 09:52:45;;;;;;;35.40;21.65;;;;;;;;;;5015077;28;20064;-73
2021/11/20 09:55:14;;;;;;;32.63;20.17;;;;;;;;;;5017349;28;20030;-73
2021/11/20 09:57:52;;;;;;;30.67;18.02;;;;;;;;;;5019371;28;20059;-73
2021/11/20 10:00:42;;;;;;;25.48;16.65;;;;;;;;;;5025301;28;20034;-73
2021/11/20 10:03:24;;;;;;;25.15;17.35;;;;;;;;;;5022066;28;20061;-73
2021/11/20 10:05:58;;;;;;;36.92;21.58;;;;;;;;;;5016297;28;20030;-72
2021/11/20 10:08:25;;;;;;;35.22;21.80;;;;;;;;;;5022852;28;20033;-73
2021/11/20 10:10:57;;;;;;;42.60;22.75;;;;;;;;;;5019185;28;20112;-73
2021/11/20 10:13:24;;;;;;;31.00;19.90;;;;;;;;;;5024177;28;20037;-73
2021/11/20 10:15:57;;;;;;;32.42;20.15;;;;;;;;;;5015848;28;20117;-73
2021/11/20 10:18:33;;;;;;;32.33;20.48;;;;;;;;;;5026775;28;20083;-73
2021/11/20 10:21:15;;;;;;;38.20;24.33;;;;;;;;;;5021656;28;20038;-73
2021/11/20 10:24:14;;;;;;;30.50;19.73;;;;;;;;;;5017124;28;20065;-72
2021/11/20 10:26:58;;;;;;;40.13;23.50;;;;;;;;;;5012094;28;20298;-73
2021/11/20 10:30:03;;;;;;;29.08;19.42;;;;;;;;;;5018601;28;20038;-73
2021/11/20 10:32:34;;;;;;;31.08;21.00;;;;;;;;;;5004688;28;20076;-73
2021/11/20 10:35:03;;;;;;;33.88;20.08;;;;;;;;;;5004138;28;20046;-73
2021/11/20 10:37:37;;;;;;;32.63;21.98;;;;;;;;;;5013406;28;20039;-73
2021/11/20 10:40:07;;;;;;;39.55;24.38;;;;;;;;;;5017689;28;20064;-73
2021/11/20 10:42:35;;;;;;;34.95;23.10;;;;;;;;;;5015273;28;20076;-73
2021/11/20 10:45:10;;;;;;;35.72;23.40;;;;;;;;;;5018441;28;20061;-73
2021/11/20 10:47:39;;;;;;;34.63;22.92;;;;;;;;;;5023844;28;20032;-73
2021/11/20 10:50:24;;;;;;;41.47;26.73;;;;;;;;;;5015507;28;20049;-73
2021/11/20 10:52:59;;;;;;;34.80;23.42;;;;;;;;;;5023211;28;20026;-73
2021/11/20 10:55:49;;;;;;;34.38;23.40;;;;;;;;;;5022599;28;20103;-73
2021/11/20 10:58:32;;;;;;;35.25;22.30;;;;;;;;;;5015413;28;20077;-72
2021/11/20 11:01:17;;;;;;;35.10;23.75;;;;;;;;;;5031125;28;20502;-73
2021/11/20 11:04:03;;;;;;;44.13;26.85;;;;;;;;;;5023178;28;20040;-73
2021/11/20 11:06:41;;;;;;;38.80;26.05;;;;;;;;;;5013309;28;20499;-73
2021/11/20 11:09:08;;;;;;;44.03;26.02;;;;;;;;;;5022107;28;20107;-73
2021/11/20 11:11:38;;;;;;;42.35;28.98;;;;;;;;;;5011652;28;20030;-73
2021/11/20 11:14:04;;;;;;;44.95;27.85;;;;;;;;;;5030014;28;20037;-73
2021/11/20 11:16:35;;;;;;;38.75;25.80;;;;;;;;;;5017172;28;20525;-73
2021/11/20 11:19:13;;;;;;;39.33;27.57;;;;;;;;;;5019711;28;20049;-72
2021/11/20 11:21:43;;;;;;;44.35;28.05;;;;;;;;;;5030242;28;20067;-73
2021/11/20 11:24:28;;;;;;;48.95;29.85;;;;;;;;;;5015218;28;20034;-72
2021/11/20 11:27:14;;;;;;;44.58;28.65;;;;;;;;;;5019924;28;20124;-72
2021/11/20 11:29:59;;;;;;;50.05;30.52;;;;;;;;;;5046166;28;20083;-72
2021/11/20 11:32:27;;;;;;;47.50;30.58;;;;;;;;;;5017308;28;20113;-73
2021/11/20 11:34:55;;;;;;;40.38;24.67;;;;;;;;;;5013526;28;20025;-73
2021/11/20 11:37:45;;;;;;;45.63;28.65;;;;;;;;;;5024909;28;20073;-73
2021/11/20 11:40:18;;;;;;;42.60;27.70;;;;;;;;;;5027345;28;20131;-73
2021/11/20 11:42:47;;;;;;;40.38;26.70;;;;;;;;;;5020187;28;20044;-73
2021/11/20 11:45:29;;;;;;;41.85;26.50;;;;;;;;;;5015025;28;20037;-73
2021/11/20 11:48:14;;;;;;;45.22;28.88;;;;;;;;;;5025724;28;20433;-73
2021/11/20 11:50:58;;;;;;;41.85;28.73;;;;;;;;;;5012207;28;20029;-73
2021/11/20 11:53:32;;;;;;;39.63;26.80;;;;;;;;;;5016526;28;20716;-73
2021/11/20 11:55:59;;;;;;;43.03;27.27;;;;;;;;;;5015146;28;20018;-73
2021/11/20 11:58:29;;;;;;;39.13;27.58;;;;;;;;;;5023797;28;20113;-73
2021/11/20 12:00:59;;;;;;;42.05;29.92;;;;;;;;;;5018067;28;20075;-73
2021/11/20 12:03:29;;;;;;;41.00;27.70;;;;;;;;;;5029403;28;20046;-73
2021/11/20 12:06:01;;;;;;;38.28;26.90;;;;;;;;;;5020802;28;20375;-73
2021/11/20 12:08:31;;;;;;;43.35;27.88;;;;;;;;;;5014790;28;20040;-73
2021/11/20 12:11:17;;;;;;;42.17;28.67;;;;;;;;;;5019857;28;20554;-73
2021/11/20 12:13:48;;;;;;;43.53;29.13;;;;;;;;;;5016786;28;20040;-73
2021/11/20 12:16:23;;;;;;;41.85;30.02;;;;;;;;;;5023231;28;20034;-73
2021/11/20 12:19:08;;;;;;;40.00;25.95;;;;;;;;;;5019405;28;20733;-72
2021/11/20 12:21:58;;;;;;;45.17;29.90;;;;;;;;;;5017485;28;20623;-73
2021/11/20 12:24:24;;;;;;;40.42;28.52;;;;;;;;;;5019937;28;20030;-73
2021/11/20 12:26:53;;;;;;;43.97;31.67;;;;;;;;;;5013203;28;20044;-73
2021/11/20 12:29:33;;;;;;;44.55;29.27;;;;;;;;;;5021024;28;20076;-73
2021/11/20 12:32:11;;;;;;;45.80;29.17;;;;;;;;;;5021151;28;20033;-73
2021/11/20 12:34:55;;;;;;;45.53;29.50;;;;;;;;;;5012273;28;20554;-73
2021/11/20 12:37:28;;;;;;;47.58;33.33;;;;;;;;;;5025575;28;20124;-73
2021/11/20 12:39:54;;;;;;;45.88;32.25;;;;;;;;;;5022810;28;20065;-73
2021/11/20 12:42:32;;;;;;;41.42;30.55;;;;;;;;;;5022899;28;20104;-73
2021/11/20 12:45:16;;;;;;;46.03;30.67;;;;;;;;;;5036331;28;20389;-73
2021/11/20 12:48:08;;;;;;;40.55;28.00;;;;;;;;;;5028820;28;20037;-73
2021/11/20 12:50:52;;;;;;;40.53;28.63;;;;;;;;;;5010790;28;20057;-73
2021/11/20 12:53:21;;;;;;;40.90;27.15;;;;;;;;;;5011547;28;20038;-73
2021/11/20 12:56:13;;;;;;;38.33;27.45;;;;;;;;;;5032975;28;20025;-73
2021/11/20 12:58:44;;;;;;;37.85;26.88;;;;;;;;;;5026260;28;20471;-73
2021/11/20 13:01:15;;;;;;;46.00;29.77;;;;;;;;;;5019415;28;20040;-74
2021/11/20 13:03:43;;;;;;;38.15;26.95;;;;;;;;;;5016045;28;20034;-73
2021/11/20 13:06:18;;;;;;;43.17;29.70;;;;;;;;;;5015270;28;20033;-73
2021/11/20 13:08:57;;;;;;;37.13;25.98;;;;;;;;;;5016655;28;20026;-73
2021/11/20 13:11:34;;;;;;;37.92;26.40;;;;;;;;;;5026579;28;20030;-73
2021/11/20 13:14:15;;;;;;;35.13;26.08;;;;;;;;;;5013046;28;20060;-73
2021/11/20 13:16:41;;;;;;;36.85;23.73;;;;;;;;;;5025298;28;20029;-73
2021/11/20 13:19:07;;;;;;;41.25;26.27;;;;;;;;;;5025497;28;20061;-73
2021/11/20 13:21:44;;;;;;;38.58;25.90;;;;;;;;;;5012472;28;20029;-73
2021/11/20 13:24:13;;;;;;;37.28;25.58;;;;;;;;;;5009789;28;20037;-73
2021/11/20 13:27:01;;;;;;;35.95;25.73;;;;;;;;;;5015274;28;20140;-73
2021/11/20 13:29:28;;;;;;;35.88;25.50;;;;;;;;;;5027099;28;20428;-73
2021/11/20 13:31:54;;;;;;;40.08;27.73;;;;;;;;;;5027714;28;20820;-73
2021/11/20 13:34:20;;;;;;;47.60;33.13;;;;;;;;;;5020228;28;20053;-73
2021/11/20 13:36:47;;;;;;;40.65;28.08;;;;;;;;;;5019864;28;20038;-73
2021/11/20 13:39:13;;;;;;;36.78;26.70;;;;;;;;;;5018888;28;20440;-73
2021/11/20 13:41:39;;;;;;;40.50;28.13;;;;;;;;;;5026347;28;20486;-73
2021/11/20 13:44:06;;;;;;;42.70;29.13;;;;;;;;;;5027057;28;20037;-73
2021/11/20 13:46:32;;;;;;;38.47;26.73;;;;;;;;;;5012828;28;20117;-73
2021/11/20 13:49:04;;;;;;;39.95;28.23;;;;;;;;;;5025456;28;20170;-72
2021/11/20 13:51:30;;;;;;;38.15;26.83;;;;;;;;;;5017143;28;20033;-73
2021/11/20 13:53:58;;;;;;;39.83;29.27;;;;;;;;;;5013736;28;20034;-73
2021/11/20 13:56:25;;;;;;;42.17;28.23;;;;;;;;;;5022205;28;20412;-73
2021/11/20 13:59:01;;;;;;;41.00;29.55;;;;;;;;;;5027297;28;20033;-73
2021/11/20 14:01:28;;;;;;;42.83;30.40;;;;;;;;;;5028133;28;20033;-73
2021/11/20 14:03:55;;;;;;;40.28;28.90;;;;;;;;;;5024117;28;20041;-72
2021/11/20 14:06:21;;;;;;;41.28;26.00;;;;;;;;;;5027261;28;20395;-73
2021/11/20 14:08:47;;;;;;;42.60;29.55;;;;;;;;;;5020189;28;20064;-73
2021/11/20 14:11:17;;;;;;;40.83;29.60;;;;;;;;;;5015734;28;20039;-74
2021/11/20 14:13:44;;;;;;;40.78;28.38;;;;;;;;;;5018660;28;20120;-74
2021/11/20 14:16:10;;;;;;;41.30;28.08;;;;;;;;;;5015823;28;20030;-73
2021/11/20 14:18:47;;;;;;;45.95;30.92;;;;;;;;;;5016871;28;20033;-73
2021/11/20 14:21:13;;;;;;;43.15;29.35;;;;;;;;;;5015096;28;20103;-73
2021/11/20 14:23:44;;;;;;;42.13;29.00;;;;;;;;;;5026711;28;20033;-73
2021/11/20 14:26:11;;;;;;;40.05;28.60;;;;;;;;;;5023235;28;20044;-73
2021/11/20 14:28:38;;;;;;;44.42;30.02;;;;;;;;;;5022391;28;20550;-73
2021/11/20 14:31:12;;;;;;;43.92;29.13;;;;;;;;;;5012729;28;20061;-73